Angie, Louisiana
Current Conditions -  °F | °C
As of 10:35 AM on Wednesday 22 Oct 2014 (Local Time) from KBXA Reporting Station
NA  
Wind Chill: 71°   Ceiling: NA
Heat Index: 71°   Visibility: 10mi
Dew Point: 54°   Wind: 6mph
Humidity: 54%   Direction: 60°ENE
Pressure: 30.14"   Gusts: NA
Location:  30.96°N, 89.82°W
Report Text: KBXA 221535Z AUTO 06005KT 10SM 22/12 A3014 RMK AO2 T02180120
Loading
Personal Weather Stations






























Interactive Weather Map New forecast layout! Learn more

10-Day Weather Forecast

Advertisements
Track Severe Weather on mobile